CheckWX is a tool to help pilots better visualize weather data.  It is not intended as a substitute for an official pre-flight weather briefing.

15:01:51 UTC

TAPA TAF
V.C. Bird International Airport
St. George, Antigua and Barbuda
TAF TAPA 261100Z 2612/2712 12007KT 9999 SCT020 PROB40 TEMPO 2612/2622 SHRA

Jan-26@
12:00 UTC

Jan-26 @ 12:00 UTC

Jan-27@
12:00 UTC

Jan-27 @ 12:00 UTC

TAF TAPA 261100Z 2612/2712 12007KT 9999 SCT020
Wind
  • 120° at 7 KTS
Cloud Levels
  • Scattered at 2,000' AGL

Jan-26@
12:00 UTC

Jan-26 @ 12:00 UTC

Jan-26@
22:00 UTC

Jan-26 @ 22:00 UTC

PROB40 TEMPO 2612/2622 SHRA

Temporary - 40% Likelihood

Temporary - 40% Likelihood during this time.

Conditions
Rain